Toyo Eagle — H3LY — position and weather

sailwx.info

Track history (hours):
 
Tides and Currents Weather Stations Pressure Air Temp Water Temp Dewpoint Dewpoint Depression Visibility Wind Speed Wind Dir Waves Ship Positions

Toyo Eagle

Last reported at 2015-May-07 00:06 UTC. Time now 2015-May-07 05:38 UTC.
Position N 23°42' E 117°58'.

Length 108 m; draft 7.7 m.

Type: Ship. MMSI: 355327000.

Date/timePositionNaut miles runAvg speedWind from/ knotsBaromVisibWave heightAir tempDewpointWater temp
2015-May-07 00:06N 23°42' E 117°58'1110.8
2015-May-06 23:07N 23°50' E 118°06'711.1
2015-May-06 22:27N 23°55' E 118°11'1011.6
2015-May-06 21:33N 24°03' E 118°19'1211.7
2015-May-06 20:30N 24°11' E 118°28'1512.1
2015-May-06 19:15N 24°22' E 118°40'1211.8
2015-May-06 18:12N 24°30' E 118°51'711.5
2015-May-06 17:33N 24°34' E 118°57'1111.2
2015-May-06 16:33N 24°41' E 119°07'1310.8
2015-May-06 15:22N 24°49' E 119°18'2110.3
2015-May-06 13:20N 25°01' E 119°37'1010.1
2015-May-06 12:20N 25°09' E 119°44'21 9.9
2015-May-06 10:14N 25°23' E 120°01'25810.8
2015-May-05 10:18N 28°28' E 123°24'2111.9
2015-May-05 08:33N 28°42' E 123°41'43210.7
2015-May-03 16:09N 33°39' E 129°48'6 9.6
2015-May-03 15:34N 33°41' E 129°54'1010.2
2015-May-03 14:33N 33°47' E 130°05'1111.2
2015-May-03 13:32N 33°54' E 130°16'1310.7
2015-May-03 12:18N 33°59' E 130°30'1011.1
2015-May-03 11:22N 34°03' E 130°42'20210.0
2015-May-02 15:12N 34°32' E 134°44'711.0
2015-May-02 14:33N 34°35' E 134°52'10 9.8
2015-May-02 13:34N 34°36' E 135°04'1110.6
2015-May-02 12:33N 34°37' E 135°17'5 4.4
2015-May-02 11:29N 34°41' E 135°17'0 0.0
2015-May-02 10:29N 34°41' E 135°17'0 0.0
2015-May-02 09:23N 34°41' E 135°17'1 1.5
2015-May-02 08:33N 34°41' E 135°18'8 7.7
2015-May-02 07:33N 34°34' E 135°14'1110.6
2015-May-02 06:33N 34°26' E 135°06'1110.7
2015-May-02 05:33N 34°17' E 134°59'1010.5
2015-May-02 04:33N 34°06' E 134°60'1111.3
2015-May-02 03:33N 33°55' E 135°00'  
Track history (hours):
 
Tides and Currents Weather Stations Pressure Air Temp Water Temp Dewpoint Dewpoint Depression Visibility Wind Speed Wind Dir Waves Ship Positions

Toyo Eagle

Last reported at 2015-May-07 00:06 UTC. Time now 2015-May-07 05:38 UTC.
Position N 23°42' E 117°58'.

Length 108 m; draft 7.7 m.

Type: Ship. MMSI: 355327000.

Date/timePositionNaut miles runAvg speedWind from/ knotsBaromVisibWave heightAir tempDewpointWater temp
2015-May-07 00:06N 23°42' E 117°58'1110.8
2015-May-06 23:07N 23°50' E 118°06'711.1
2015-May-06 22:27N 23°55' E 118°11'1011.6
2015-May-06 21:33N 24°03' E 118°19'1211.7
2015-May-06 20:30N 24°11' E 118°28'1512.1
2015-May-06 19:15N 24°22' E 118°40'1211.8
2015-May-06 18:12N 24°30' E 118°51'711.5
2015-May-06 17:33N 24°34' E 118°57'1111.2
2015-May-06 16:33N 24°41' E 119°07'1310.8
2015-May-06 15:22N 24°49' E 119°18'2110.3
2015-May-06 13:20N 25°01' E 119°37'1010.1
2015-May-06 12:20N 25°09' E 119°44'21 9.9
2015-May-06 10:14N 25°23' E 120°01'25810.8
2015-May-05 10:18N 28°28' E 123°24'2111.9
2015-May-05 08:33N 28°42' E 123°41'43210.7
2015-May-03 16:09N 33°39' E 129°48'6 9.6
2015-May-03 15:34N 33°41' E 129°54'1010.2
2015-May-03 14:33N 33°47' E 130°05'1111.2
2015-May-03 13:32N 33°54' E 130°16'1310.7
2015-May-03 12:18N 33°59' E 130°30'1011.1
2015-May-03 11:22N 34°03' E 130°42'20210.0
2015-May-02 15:12N 34°32' E 134°44'711.0
2015-May-02 14:33N 34°35' E 134°52'10 9.8
2015-May-02 13:34N 34°36' E 135°04'1110.6
2015-May-02 12:33N 34°37' E 135°17'5 4.4
2015-May-02 11:29N 34°41' E 135°17'0 0.0
2015-May-02 10:29N 34°41' E 135°17'0 0.0
2015-May-02 09:23N 34°41' E 135°17'1 1.5
2015-May-02 08:33N 34°41' E 135°18'8 7.7
2015-May-02 07:33N 34°34' E 135°14'1110.6
2015-May-02 06:33N 34°26' E 135°06'1110.7
2015-May-02 05:33N 34°17' E 134°59'1010.5
2015-May-02 04:33N 34°06' E 134°60'1111.3
2015-May-02 03:33N 33°55' E 135°00'  

Dump ship's entire track history